createdAt,value
2018-04-25T00:00:37.876Z,62.60
2018-04-25T00:03:04.122Z,62.50
2018-04-25T00:05:30.363Z,62.40
2018-04-25T00:07:56.598Z,62.20
2018-04-25T00:10:22.886Z,62.10
2018-04-25T00:12:49.378Z,62.00
2018-04-25T00:15:15.694Z,61.80
2018-04-25T00:17:42.005Z,61.60
2018-04-25T00:20:08.253Z,61.50
2018-04-25T00:22:34.515Z,61.30
2018-04-25T00:25:01.514Z,60.90
2018-04-25T00:27:27.732Z,60.90
2018-04-25T00:29:54.062Z,60.70
2018-04-25T00:32:20.364Z,60.70
2018-04-25T00:34:46.622Z,60.60
2018-04-25T00:37:12.832Z,60.50
2018-04-25T00:39:39.100Z,60.20
2018-04-25T00:42:05.393Z,60.10
2018-04-25T00:44:31.721Z,59.90
2018-04-25T00:46:57.904Z,59.70
2018-04-25T00:49:25.113Z,59.60
2018-04-25T00:51:51.606Z,59.60
2018-04-25T00:54:18.652Z,59.40
2018-04-25T00:56:45.632Z,59.20
2018-04-25T00:59:11.964Z,59.20
2018-04-25T01:01:38.299Z,59.10
2018-04-25T01:04:04.544Z,59.70
2018-04-25T01:06:30.833Z,59.00
2018-04-25T01:08:57.872Z,58.80
2018-04-25T01:11:24.507Z,58.80
2018-04-25T01:13:50.794Z,58.70
2018-04-25T01:16:17.045Z,58.60
2018-04-25T01:18:43.312Z,58.50
2018-04-25T01:21:09.539Z,58.40
2018-04-25T01:23:36.049Z,58.40
2018-04-25T01:26:06.140Z,58.30
2018-04-25T01:31:47.979Z,58.00
2018-04-25T01:34:17.920Z,58.00
2018-04-25T01:36:45.937Z,58.00
2018-04-25T01:39:12.204Z,58.00
2018-04-25T01:41:39.252Z,57.60
2018-04-25T01:44:22.034Z,57.40
2018-04-25T01:47:12.348Z,57.40
2018-04-25T01:49:38.580Z,57.90
2018-04-25T01:52:17.214Z,57.70
2018-04-25T01:54:56.400Z,57.30
2018-04-25T01:57:34.950Z,57.40
2018-04-25T02:00:13.546Z,57.30
2018-04-25T02:02:39.676Z,57.20
2018-04-25T02:05:05.948Z,57.20
2018-04-25T02:07:32.177Z,57.20
2018-04-25T02:09:58.384Z,57.30
2018-04-25T02:12:24.616Z,57.30
2018-04-25T02:14:50.902Z,57.30
2018-04-25T02:17:17.116Z,57.50
2018-04-25T02:19:43.352Z,57.60
2018-04-25T02:22:09.696Z,57.70
2018-04-25T02:24:36.830Z,58.00
2018-04-25T02:27:03.082Z,58.00
2018-04-25T02:29:30.079Z,58.70
2018-04-25T02:31:56.345Z,58.20
2018-04-25T02:34:22.577Z,58.90
2018-04-25T02:36:48.801Z,58.50
2018-04-25T02:39:15.200Z,58.70
2018-04-25T02:41:41.479Z,58.80
2018-04-25T02:44:08.493Z,59.10
2018-04-25T02:46:34.734Z,59.20
2018-04-25T02:49:00.943Z,59.40
2018-04-25T02:51:27.972Z,59.80
2018-04-25T02:53:54.256Z,59.70
2018-04-25T02:56:21.236Z,60.00
2018-04-25T02:58:48.265Z,59.50
2018-04-25T03:01:14.654Z,60.00
2018-04-25T03:03:40.941Z,60.40
2018-04-25T03:06:07.158Z,60.30
2018-04-25T03:08:33.372Z,60.60
2018-04-25T03:10:59.581Z,60.70
2018-04-25T03:13:26.553Z,60.90
2018-04-25T03:15:52.821Z,60.90
2018-04-25T03:18:19.089Z,61.10
2018-04-25T03:20:46.264Z,61.20
2018-04-25T03:23:12.503Z,61.00
2018-04-25T03:25:38.712Z,61.10
2018-04-25T03:28:05.023Z,61.20
2018-04-25T03:30:32.034Z,61.40
2018-04-25T03:32:58.285Z,61.40
2018-04-25T03:35:24.548Z,61.60
2018-04-25T03:37:50.828Z,61.80
2018-04-25T03:40:17.040Z,61.80
2018-04-25T03:42:44.089Z,62.00
2018-04-25T03:45:10.304Z,62.00
2018-04-25T03:47:36.632Z,62.00
2018-04-25T03:50:02.903Z,62.30
2018-04-25T03:52:29.161Z,62.30
2018-04-25T03:54:55.467Z,62.50
2018-04-25T03:57:21.800Z,62.50
2018-04-25T03:59:48.914Z,62.90
2018-04-25T04:02:15.131Z,62.80
2018-04-25T04:04:41.475Z,63.00
2018-04-25T04:07:07.741Z,63.20
2018-04-25T04:09:34.722Z,63.40
2018-04-25T04:12:00.981Z,63.40
2018-04-25T04:14:27.286Z,63.50
2018-04-25T04:16:53.506Z,63.60
2018-04-25T04:19:20.016Z,63.60
2018-04-25T04:21:47.060Z,63.70
2018-04-25T04:24:14.060Z,64.60
2018-04-25T04:26:40.293Z,63.70
2018-04-25T04:29:06.531Z,63.80
2018-04-25T04:31:32.806Z,64.00
2018-04-25T04:33:59.468Z,63.80
2018-04-25T04:36:25.679Z,63.70
2018-04-25T04:38:52.016Z,63.70
2018-04-25T04:41:18.292Z,63.60
2018-04-25T04:43:44.568Z,63.40
2018-04-25T04:46:10.781Z,63.30
2018-04-25T04:48:37.028Z,63.20
2018-04-25T04:51:03.359Z,63.20
2018-04-25T04:53:29.616Z,63.30
2018-04-25T04:55:56.597Z,63.50
2018-04-25T04:58:23.532Z,63.60
2018-04-25T05:00:50.476Z,63.40
2018-04-25T05:03:17.464Z,63.40
2018-04-25T05:05:44.448Z,63.30
2018-04-25T05:08:10.679Z,63.30
2018-04-25T05:10:36.935Z,63.30
2018-04-25T05:13:03.302Z,63.50
2018-04-25T05:15:29.526Z,64.10
2018-04-25T05:17:55.791Z,64.60
2018-04-25T05:20:22.002Z,65.90
2018-04-25T05:22:48.255Z,66.50
2018-04-25T05:25:15.246Z,68.50
2018-04-25T05:27:41.570Z,68.50
2018-04-25T05:30:07.840Z,69.50
2018-04-25T05:32:33.985Z,70.20
2018-04-25T05:35:01.564Z,71.40
2018-04-25T05:37:28.409Z,71.70
2018-04-25T05:39:55.343Z,71.20
2018-04-25T05:42:21.417Z,71.10
2018-04-25T05:44:47.615Z,71.10
2018-04-25T05:47:13.783Z,71.50
2018-04-25T05:49:39.875Z,71.90
2018-04-25T05:52:06.037Z,72.10
2018-04-25T05:54:32.118Z,72.20
2018-04-25T05:56:58.191Z,72.60
2018-04-25T05:59:24.339Z,72.60
2018-04-25T06:01:50.537Z,73.30
2018-04-25T06:04:17.545Z,73.90
2018-04-25T06:06:44.767Z,73.80
2018-04-25T06:09:11.611Z,74.30
2018-04-25T06:11:37.787Z,74.30
2018-04-25T06:14:04.003Z,74.50
2018-04-25T06:16:30.141Z,75.10
2018-04-25T06:18:56.387Z,75.60
2018-04-25T06:21:35.897Z,76.80
2018-04-25T06:24:02.612Z,76.70
2018-04-25T06:26:29.515Z,77.10
2018-04-25T06:28:55.539Z,77.10
2018-04-25T06:31:21.846Z,77.40
2018-04-25T06:33:48.897Z,77.50
2018-04-25T06:36:15.035Z,77.20
2018-04-25T06:38:41.228Z,78.00
2018-04-25T06:41:07.399Z,77.60
2018-04-25T06:43:33.516Z,77.50
2018-04-25T06:45:59.632Z,77.50
2018-04-25T06:48:25.806Z,77.80
2018-04-25T06:50:51.977Z,77.80
2018-04-25T06:53:18.092Z,78.00
2018-04-25T06:55:44.218Z,77.90
2018-04-25T06:58:10.322Z,78.40
2018-04-25T07:00:36.387Z,78.00
2018-04-25T07:03:03.224Z,77.70
2018-04-25T07:05:30.191Z,77.30
2018-04-25T07:07:56.301Z,77.30
2018-04-25T07:10:22.446Z,76.80
2018-04-25T07:12:49.283Z,75.80
2018-04-25T07:15:15.369Z,75.70
2018-04-25T07:17:41.486Z,74.10
2018-04-25T07:20:07.607Z,72.40
2018-04-25T07:22:34.578Z,68.30
2018-04-25T07:25:00.711Z,68.10
2018-04-25T07:27:27.924Z,69.20
2018-04-25T07:29:55.993Z,70.40
2018-04-25T07:32:23.219Z,70.40
2018-04-25T07:34:49.331Z,70.30
2018-04-25T07:37:15.397Z,69.90
2018-04-25T07:39:41.505Z,70.30
2018-04-25T07:42:07.585Z,70.50
2018-04-25T07:44:33.697Z,69.80
2018-04-25T07:46:59.803Z,68.10
2018-04-25T07:49:25.915Z,64.10
2018-04-25T07:51:52.014Z,61.40
2018-04-25T07:54:18.901Z,57.90
2018-04-25T07:56:44.983Z,57.70
2018-04-25T07:59:11.204Z,57.00
2018-04-25T08:01:37.304Z,54.20
2018-04-25T08:04:04.291Z,44.10
2018-04-25T08:06:30.652Z,44.00
2018-04-25T08:08:56.870Z,42.30
2018-04-25T08:11:23.073Z,42.00
2018-04-25T08:14:02.406Z,44.30
2018-04-25T08:16:40.889Z,44.30
2018-04-25T08:19:19.413Z,45.00
2018-04-25T08:21:45.675Z,44.60
2018-04-25T08:24:12.052Z,44.70
2018-04-25T08:26:38.165Z,44.80
2018-04-25T08:29:04.347Z,44.20
2018-04-25T08:31:30.500Z,44.70
2018-04-25T08:33:56.578Z,46.50
2018-04-25T08:36:22.745Z,47.50
2018-04-25T08:38:48.839Z,49.00
2018-04-25T08:41:15.727Z,50.30
2018-04-25T08:43:42.121Z,50.30
2018-04-25T08:46:08.441Z,51.10
2018-04-25T08:48:35.412Z,51.10
2018-04-25T08:51:01.572Z,51.10
2018-04-25T08:53:27.649Z,51.40
2018-04-25T08:55:53.854Z,51.80
2018-04-25T08:58:20.316Z,52.20
2018-04-25T09:00:46.562Z,52.40
2018-04-25T09:03:12.861Z,52.40
2018-04-25T09:05:41.254Z,49.00
2018-04-25T09:08:07.364Z,48.90
2018-04-25T09:10:34.182Z,45.80
2018-04-25T09:13:01.029Z,44.30
2018-04-25T09:15:27.234Z,44.20
2018-04-25T09:17:53.454Z,41.70
2018-04-25T09:20:19.780Z,37.60
2018-04-25T09:22:46.163Z,37.30
2018-04-25T09:25:12.552Z,38.90
2018-04-25T09:27:38.848Z,40.80
2018-04-25T09:30:05.133Z,41.80
2018-04-25T09:32:31.363Z,42.60
2018-04-25T09:34:57.663Z,42.50
2018-04-25T09:37:23.956Z,43.00
2018-04-25T09:39:50.340Z,43.30
2018-04-25T09:42:17.131Z,43.50
2018-04-25T09:44:43.387Z,44.00
2018-04-25T09:47:09.572Z,43.80
2018-04-25T09:49:36.640Z,42.70
2018-04-25T09:52:02.945Z,42.70
2018-04-25T09:54:29.937Z,44.10
2018-04-25T09:56:56.224Z,43.90
2018-04-25T09:59:22.524Z,42.30
2018-04-25T10:01:55.488Z,42.00
2018-04-25T10:04:21.666Z,41.90
2018-04-25T10:06:48.581Z,43.10
2018-04-25T10:09:14.647Z,43.10
2018-04-25T10:11:40.735Z,42.90
2018-04-25T10:14:06.796Z,42.90
2018-04-25T10:16:32.927Z,43.20
2018-04-25T10:18:59.083Z,43.30
2018-04-25T10:21:25.286Z,42.70
2018-04-25T10:23:51.414Z,42.70
2018-04-25T10:26:17.516Z,43.30
2018-04-25T10:28:44.379Z,42.40
2018-04-25T10:31:10.521Z,42.40
2018-04-25T10:33:37.386Z,42.30
2018-04-25T10:36:03.539Z,42.30
2018-04-25T10:38:29.694Z,42.10
2018-04-25T10:40:56.681Z,42.50
2018-04-25T10:43:23.531Z,42.10
2018-04-25T10:45:49.652Z,42.10
2018-04-25T10:48:15.764Z,42.20
2018-04-25T10:50:41.845Z,42.40
2018-04-25T10:53:07.916Z,42.40
2018-04-25T10:55:34.126Z,42.60
2018-04-25T10:58:00.331Z,42.10
2018-04-25T11:00:26.423Z,42.30
2018-04-25T11:02:53.336Z,43.00
2018-04-25T11:05:19.416Z,43.00
2018-04-25T11:07:45.520Z,42.90
2018-04-25T11:10:12.348Z,42.90
2018-04-25T11:12:38.423Z,42.90
2018-04-25T11:15:04.590Z,42.70
2018-04-25T11:17:30.683Z,42.60
2018-04-25T11:19:56.783Z,42.10
2018-04-25T11:22:22.860Z,42.10
2018-04-25T11:24:49.833Z,42.50
2018-04-25T11:27:15.968Z,42.60
2018-04-25T11:29:42.263Z,42.70
2018-04-25T11:32:08.389Z,41.10
2018-04-25T11:34:34.752Z,40.50
2018-04-25T11:37:00.838Z,41.10
2018-04-25T11:39:26.929Z,41.40
2018-04-25T11:41:53.009Z,41.70
2018-04-25T11:44:19.842Z,41.70
2018-04-25T11:46:46.732Z,41.70
2018-04-25T11:49:12.885Z,41.70
2018-04-25T11:51:39.105Z,41.70
2018-04-25T11:54:05.196Z,41.70
2018-04-25T11:56:31.271Z,41.70
2018-04-25T11:58:57.399Z,41.80
2018-04-25T12:01:23.527Z,41.40
2018-04-25T12:03:49.653Z,41.90
2018-04-25T12:06:16.600Z,41.80
2018-04-25T12:08:42.925Z,41.80
2018-04-25T12:11:10.384Z,41.70
2018-04-25T12:13:36.557Z,41.70
2018-04-25T12:16:02.696Z,41.70
2018-04-25T12:18:28.949Z,41.70
2018-04-25T12:20:55.032Z,41.80
2018-04-25T12:23:21.175Z,41.80
2018-04-25T12:25:47.387Z,41.50
2018-04-25T12:28:14.742Z,41.30
2018-04-25T12:30:41.416Z,41.50
2018-04-25T12:33:07.524Z,41.80
2018-04-25T12:35:33.603Z,41.70
2018-04-25T12:38:00.407Z,41.10
2018-04-25T12:40:26.499Z,41.00
2018-04-25T12:42:53.210Z,40.90
2018-04-25T12:45:19.592Z,41.10
2018-04-25T12:47:45.880Z,41.10
2018-04-25T12:50:12.090Z,40.30
2018-04-25T12:52:38.901Z,41.00
2018-04-25T12:55:04.991Z,40.80
2018-04-25T12:57:31.152Z,41.10
2018-04-25T13:01:16.701Z,41.60
2018-04-25T13:03:42.899Z,40.70
2018-04-25T13:06:09.761Z,40.20
2018-04-25T13:08:36.881Z,40.20
2018-04-25T13:11:03.780Z,40.30
2018-04-25T13:13:29.951Z,40.20
2018-04-25T13:15:56.089Z,40.50
2018-04-25T13:18:23.030Z,40.20
2018-04-25T13:20:49.410Z,40.10
2018-04-25T13:23:15.771Z,40.20
2018-04-25T13:25:41.892Z,40.20
2018-04-25T13:28:07.967Z,39.80
2018-04-25T13:30:34.069Z,39.50
2018-04-25T13:33:01.115Z,39.70
2018-04-25T13:35:27.346Z,39.70
2018-04-25T13:37:54.328Z,39.50
2018-04-25T13:40:20.410Z,39.40
2018-04-25T13:42:46.896Z,39.40
2018-04-25T13:45:13.025Z,39.70
2018-04-25T13:47:39.170Z,39.80
2018-04-25T13:50:05.280Z,39.70
2018-04-25T13:52:31.513Z,39.90
2018-04-25T13:54:57.712Z,40.10
2018-04-25T13:57:23.947Z,39.20
2018-04-25T13:59:50.121Z,39.90
2018-04-25T14:02:16.183Z,39.50
2018-04-25T14:04:42.248Z,39.70
2018-04-25T14:07:08.355Z,39.80
2018-04-25T14:09:34.516Z,39.70
2018-04-25T14:12:00.612Z,39.60
2018-04-25T14:14:26.767Z,39.60
2018-04-25T14:16:52.830Z,39.60
2018-04-25T14:19:18.938Z,39.70
2018-04-25T14:23:07.767Z,48.30
2018-04-25T14:23:11.835Z,43.60
2018-04-25T14:23:15.876Z,43.00
2018-04-25T14:23:20.707Z,42.90
2018-04-25T14:23:24.753Z,42.90
2018-04-25T14:28:26.283Z,38.50
2018-04-25T14:28:30.669Z,38.20
2018-04-25T14:28:35.709Z,37.30
2018-04-25T14:28:39.916Z,37.20
2018-04-25T14:28:44.186Z,37.10
2018-04-25T14:28:49.160Z,37.30
2018-04-25T14:28:53.486Z,37.20
2018-04-25T14:28:58.432Z,36.80
2018-04-25T14:29:03.484Z,36.90
2018-04-25T14:29:07.770Z,36.90
2018-04-25T14:29:12.749Z,37.60
2018-04-25T14:29:17.741Z,37.60
2018-04-25T14:29:22.896Z,37.30
2018-04-25T14:29:27.082Z,37.20
2018-04-25T14:29:32.120Z,36.60
2018-04-25T14:29:36.419Z,36.60
2018-04-25T14:44:15.161Z,30.00
2018-04-25T14:46:41.545Z,31.70
2018-04-25T14:49:07.881Z,35.40
2018-04-25T14:51:34.193Z,35.80
2018-04-25T14:54:01.181Z,38.80
2018-04-25T14:56:27.462Z,38.70
2018-04-25T14:58:54.536Z,40.90
2018-04-25T15:01:20.768Z,40.30
2018-04-25T15:03:47.060Z,41.40
2018-04-25T15:06:14.100Z,41.60
2018-04-25T15:08:40.495Z,41.60
2018-04-25T15:11:06.974Z,41.30
2018-04-25T15:13:33.937Z,42.80
2018-04-25T15:16:00.964Z,44.20
2018-04-25T15:18:27.943Z,43.80
2018-04-25T15:20:54.922Z,43.80
2018-04-25T15:23:21.312Z,43.80
2018-04-25T15:25:47.609Z,43.60
2018-04-25T15:28:14.592Z,44.70
2018-04-25T15:30:40.828Z,44.50
2018-04-25T15:33:07.204Z,43.30
2018-04-25T15:35:33.422Z,43.60
2018-04-25T15:37:59.910Z,43.80
2018-04-25T15:40:28.206Z,44.60
2018-04-25T15:42:54.446Z,42.10
2018-04-25T15:45:21.721Z,41.20
2018-04-25T15:47:48.032Z,41.20
2018-04-25T15:50:15.166Z,40.30
2018-04-25T15:52:41.543Z,41.00
2018-04-25T15:55:08.551Z,40.90
2018-04-25T15:57:34.770Z,40.80
2018-04-25T16:00:01.093Z,41.20
2018-04-25T16:02:27.409Z,41.40
2018-04-25T16:04:54.672Z,41.30
2018-04-25T16:07:21.070Z,42.20
2018-04-25T16:09:48.975Z,44.60
2018-04-25T16:12:15.552Z,44.50
2018-04-25T16:14:41.789Z,45.70
2018-04-25T16:17:08.068Z,46.90
2018-04-25T16:19:34.291Z,47.20
2018-04-25T16:22:00.537Z,46.80
2018-04-25T16:24:27.024Z,47.70
2018-04-25T16:26:54.230Z,47.60
2018-04-25T16:29:20.503Z,47.50
2018-04-25T16:31:46.869Z,48.00
2018-04-25T16:34:13.093Z,47.50
2018-04-25T16:36:39.370Z,48.50
2018-04-25T16:39:05.682Z,47.80
2018-04-25T16:41:32.069Z,46.90
2018-04-25T16:43:58.496Z,47.50
2018-04-25T16:46:24.947Z,48.90
2018-04-25T16:48:51.283Z,48.50
2018-04-25T16:51:17.628Z,48.40
2018-04-25T16:53:43.915Z,48.90
2018-04-25T16:56:10.190Z,50.20
2018-04-25T16:58:36.443Z,49.80
2018-04-25T17:01:04.048Z,50.20
2018-04-25T17:03:31.431Z,50.10
2018-04-25T17:05:57.742Z,50.00
2018-04-25T17:08:24.109Z,50.80
2018-04-25T17:10:50.491Z,50.40
2018-04-25T17:13:16.751Z,49.60
2018-04-25T17:15:43.024Z,49.20
2018-04-25T17:18:09.346Z,50.70
2018-04-25T17:20:35.720Z,49.50
2018-04-25T17:23:03.788Z,50.10
2018-04-25T17:25:30.977Z,49.70
2018-04-25T17:27:57.301Z,49.60
2018-04-25T17:30:23.603Z,49.70
2018-04-25T17:32:49.904Z,49.10
2018-04-25T17:35:16.169Z,48.80
2018-04-25T17:37:43.766Z,48.70
2018-04-25T17:40:10.899Z,48.30
2018-04-25T17:42:38.421Z,49.00
2018-04-25T17:45:04.915Z,48.90
2018-04-25T17:47:32.115Z,49.30
2018-04-25T17:49:58.394Z,49.30
2018-04-25T17:52:25.365Z,48.60
2018-04-25T17:54:51.704Z,48.50
2018-04-25T17:57:17.951Z,49.40
2018-04-25T17:59:44.276Z,49.10
2018-04-25T18:02:10.700Z,49.80
2018-04-25T18:04:38.254Z,49.60
2018-04-25T18:07:04.715Z,49.70
2018-04-25T18:09:31.011Z,50.00
2018-04-25T18:11:57.268Z,50.20
2018-04-25T18:14:23.556Z,50.90
2018-04-25T18:16:49.963Z,49.80
2018-04-25T18:19:16.206Z,49.80
2018-04-25T18:21:43.352Z,51.60
2018-04-25T18:24:10.322Z,50.90
2018-04-25T18:26:36.715Z,51.40
2018-04-25T18:29:04.763Z,52.50
2018-04-25T18:31:31.036Z,52.50
2018-04-25T18:33:58.045Z,52.50
2018-04-25T18:36:24.463Z,52.40
2018-04-25T18:38:50.900Z,52.50
2018-04-25T18:41:17.233Z,52.40
2018-04-25T18:43:43.577Z,53.10
2018-04-25T18:46:10.644Z,53.40
2018-04-25T18:48:37.616Z,53.10
2018-04-25T18:51:04.845Z,53.10
2018-04-25T18:53:31.861Z,53.90
2018-04-25T18:55:58.129Z,53.80
2018-04-25T18:58:25.241Z,53.50
2018-04-25T19:00:51.596Z,53.60
2018-04-25T19:03:17.918Z,53.30
2018-04-25T19:05:45.051Z,54.50
2018-04-25T19:08:11.316Z,54.50
2018-04-25T19:10:38.306Z,55.60
2018-04-25T19:13:04.569Z,55.60
2018-04-25T19:15:31.544Z,55.40
2018-04-25T19:17:57.891Z,55.40
2018-04-25T19:20:24.226Z,55.50
2018-04-25T19:22:51.259Z,56.40
2018-04-25T19:25:17.763Z,55.10
2018-04-25T19:27:44.873Z,55.10
2018-04-25T19:30:11.135Z,55.20
2018-04-25T19:32:38.211Z,55.20
2018-04-25T19:35:04.484Z,55.20
2018-04-25T19:37:30.840Z,55.50
2018-04-25T19:39:57.853Z,55.50
2018-04-25T19:42:24.213Z,56.40
2018-04-25T19:44:51.243Z,56.70
2018-04-25T19:47:17.472Z,56.70
2018-04-25T19:49:44.482Z,56.80
2018-04-25T19:52:10.758Z,56.80
2018-04-25T19:54:37.087Z,57.00
2018-04-25T19:57:03.394Z,57.30
2018-04-25T19:59:29.678Z,57.50
2018-04-25T20:01:56.082Z,57.80
2018-04-25T20:04:22.446Z,57.10
2018-04-25T20:06:48.812Z,58.20
2018-04-25T20:09:15.100Z,57.70
2018-04-25T20:11:41.363Z,58.00
2018-04-25T20:14:07.646Z,57.50
2018-04-25T20:16:38.218Z,57.90
2018-04-25T20:19:05.103Z,57.80
2018-04-25T20:21:31.867Z,58.20
2018-04-25T20:23:59.240Z,58.00
2018-04-25T20:26:26.404Z,58.50
2018-04-25T20:28:52.647Z,58.50
2018-04-25T20:31:19.394Z,58.60
2018-04-25T20:33:45.655Z,58.10
2018-04-25T20:36:12.705Z,58.80
2018-04-25T20:38:39.360Z,58.60
2018-04-25T20:41:05.922Z,59.80
2018-04-25T20:43:32.353Z,59.50
2018-04-25T20:45:59.168Z,61.40
2018-04-25T20:48:25.548Z,61.60
2018-04-25T20:50:52.929Z,60.00
2018-04-25T20:53:19.414Z,60.10
2018-04-25T20:55:45.692Z,59.90
2018-04-25T20:58:12.204Z,59.40
2018-04-25T21:00:39.041Z,58.40
2018-04-25T21:03:06.205Z,58.70
2018-04-25T21:05:33.214Z,58.40
2018-04-25T21:07:59.622Z,58.30
2018-04-25T21:10:25.865Z,58.70
2018-04-25T21:12:52.137Z,58.60
2018-04-25T21:15:18.480Z,59.50
2018-04-25T21:17:44.885Z,59.40
2018-04-25T21:20:11.188Z,59.60
2018-04-25T21:22:37.528Z,59.70
2018-04-25T21:25:04.986Z,59.90
2018-04-25T21:27:31.244Z,59.80
2018-04-25T21:29:59.177Z,60.60
2018-04-25T21:32:25.564Z,60.60
2018-04-25T21:34:51.969Z,59.80
2018-04-25T21:37:18.319Z,59.60
2018-04-25T21:39:44.831Z,58.90
2018-04-25T21:42:11.336Z,58.40
2018-04-25T21:44:38.464Z,57.90
2018-04-25T21:47:04.712Z,57.70
2018-04-25T21:49:30.936Z,57.70
2018-04-25T21:51:57.189Z,57.20
2018-04-25T21:54:23.498Z,57.10
2018-04-25T21:56:49.887Z,56.90
2018-04-25T21:59:16.257Z,56.40
2018-04-25T22:01:42.763Z,55.20
2018-04-25T22:04:09.390Z,54.80
2018-04-25T22:06:36.884Z,55.00
2018-04-25T22:09:03.836Z,54.90
2018-04-25T22:11:30.579Z,54.90
2018-04-25T22:14:00.437Z,54.80
2018-04-25T22:16:37.029Z,54.70
2018-04-25T22:19:07.174Z,55.00
2018-04-25T22:21:35.565Z,54.70
2018-04-25T22:24:02.429Z,54.50
2018-04-25T22:26:35.315Z,54.50
2018-04-25T22:29:05.948Z,54.40
2018-04-25T22:31:35.107Z,55.00
2018-04-25T22:34:01.338Z,55.40
2018-04-25T22:36:27.647Z,55.40
2018-04-25T22:38:54.000Z,56.20
2018-04-25T22:41:20.331Z,56.50
2018-04-25T22:43:47.376Z,56.60
2018-04-25T22:46:13.623Z,56.50
2018-04-25T22:48:39.893Z,57.60
2018-04-25T22:51:06.896Z,56.40
2018-04-25T22:53:33.161Z,56.30
2018-04-25T22:56:00.096Z,56.70
2018-04-25T22:58:27.275Z,57.00
2018-04-25T23:00:54.301Z,56.90
2018-04-25T23:03:21.120Z,56.50
2018-04-25T23:05:47.288Z,56.90
2018-04-25T23:08:13.552Z,56.80
2018-04-25T23:10:39.761Z,56.60
2018-04-25T23:13:08.463Z,56.50
2018-04-25T23:15:41.181Z,56.60
2018-04-25T23:18:17.110Z,57.40
2018-04-25T23:20:47.101Z,57.30
2018-04-25T23:23:16.603Z,57.20
2018-04-25T23:28:19.668Z,57.30
2018-04-25T23:30:49.053Z,57.60
2018-04-25T23:33:17.441Z,57.60
2018-04-25T23:35:47.078Z,58.30
2018-04-25T23:38:17.849Z,57.80
2018-04-25T23:40:49.526Z,57.50
2018-04-25T23:43:17.812Z,57.50
2018-04-25T23:45:44.499Z,57.40
2018-04-25T23:48:19.256Z,58.00
2018-04-25T23:50:51.477Z,58.30
2018-04-25T23:53:23.427Z,58.20
2018-04-25T23:55:56.830Z,58.50
2018-04-25T23:58:26.340Z,57.90
